Time,TemperatureF,DewpointF,PressureIn,WindDirection,WindDirectionDegrees,WindSpeedMPH,WindSpeedGustMPH,Humidity,HourlyPrecipIn,Conditions,Clouds,dailyrainin,SoftwareType,DateUTC
2013-01-26 00:33:00,38.0,30.0,-100.00,SW,220,2.0,-999.0,72,-99.99,,,-99.99,,2013-01-26 07:33:00,
2013-01-26 00:41:00,38.0,30.0,-100.00,SW,220,2.0,-999.0,72,-99.99,,,-99.99,,2013-01-26 07:41:00,
2013-01-26 00:51:00,38.0,30.0,-100.00,SW,220,2.0,-999.0,72,-99.99,,,-99.99,,2013-01-26 07:51:00,
2013-01-26 02:32:00,34.0,29.0,-100.00,North,0,0.0,-999.0,81,-99.99,,,-99.99,,2013-01-26 09:32:00,
2013-01-26 02:42:00,34.0,29.0,-100.00,North,0,0.0,-999.0,81,-99.99,,,-99.99,,2013-01-26 09:42:00,
2013-01-26 02:51:00,34.0,29.0,-100.00,North,0,0.0,-999.0,81,-99.99,,,-99.99,,2013-01-26 09:51:00,
2013-01-26 03:32:00,34.0,30.0,-100.00,North,0,0.0,-999.0,85,-99.99,,,-99.99,,2013-01-26 10:32:00,
2013-01-26 03:42:00,34.0,30.0,-100.00,North,0,0.0,-999.0,85,-99.99,,,-99.99,,2013-01-26 10:42:00,
2013-01-26 03:52:00,34.0,30.0,-100.00,North,0,0.0,-999.0,85,-99.99,,,-99.99,,2013-01-26 10:52:00,
2013-01-26 04:32:00,33.0,29.0,-100.00,SW,220,2.0,-999.0,84,-99.99,,,-99.99,,2013-01-26 11:32:00,
2013-01-26 04:42:00,33.0,29.0,-100.00,SW,220,2.0,-999.0,84,-99.99,,,-99.99,,2013-01-26 11:42:00,
2013-01-26 04:52:00,33.0,29.0,-100.00,SW,220,2.0,-999.0,84,-99.99,,,-99.99,,2013-01-26 11:52:00,
2013-01-26 05:33:00,32.0,29.0,-100.00,NE,40,3.0,-999.0,88,-99.99,,,-99.99,,2013-01-26 12:33:00,
2013-01-26 05:42:00,32.0,29.0,-100.00,NE,40,3.0,-999.0,88,-99.99,,,-99.99,,2013-01-26 12:42:00,
2013-01-26 05:52:00,32.0,29.0,-100.00,NE,40,3.0,-999.0,88,-99.99,,,-99.99,,2013-01-26 12:52:00,
2013-01-26 06:33:00,31.0,29.0,-100.00,NE,40,3.0,-999.0,92,-99.99,,,-99.99,,2013-01-26 13:33:00,
2013-01-26 06:42:00,31.0,29.0,-100.00,NE,40,3.0,-999.0,92,-99.99,,,-99.99,,2013-01-26 13:42:00,
2013-01-26 06:52:00,31.0,29.0,-100.00,NE,40,3.0,-999.0,92,-99.99,,,-99.99,,2013-01-26 13:52:00,
2013-01-26 08:32:00,30.0,27.0,-100.00,North,0,0.0,-999.0,88,-99.99,,,-99.99,,2013-01-26 15:32:00,
2013-01-26 08:43:00,30.0,27.0,-100.00,North,0,0.0,-999.0,88,-99.99,,,-99.99,,2013-01-26 15:43:00,
2013-01-26 08:52:00,30.0,27.0,-100.00,North,0,0.0,-999.0,88,-99.99,,,-99.99,,2013-01-26 15:52:00,
2013-01-26 09:33:00,31.0,27.0,-100.00,North,0,0.0,-999.0,85,-99.99,,,-99.99,,2013-01-26 16:33:00,
2013-01-26 09:42:00,31.0,27.0,-100.00,North,0,0.0,-999.0,85,-99.99,,,-99.99,,2013-01-26 16:42:00,
2013-01-26 09:53:00,31.0,27.0,-100.00,North,0,0.0,-999.0,85,-99.99,,,-99.99,,2013-01-26 16:53:00,
2013-01-26 10:33:00,35.0,26.0,-100.00,WSW,240,1.0,-999.0,69,-99.99,,,-99.99,,2013-01-26 17:33:00,
2013-01-26 10:42:00,35.0,26.0,-100.00,WSW,240,1.0,-999.0,69,-99.99,,,-99.99,,2013-01-26 17:42:00,
2013-01-26 10:52:00,35.0,26.0,-100.00,WSW,240,1.0,-999.0,69,-99.99,,,-99.99,,2013-01-26 17:52:00,
2013-01-26 12:33:00,-999.0,-99.9,-100.00,NE,50,2.0,-999.0,-999,-99.99,,,-99.99,,2013-01-26 19:33:00,
2013-01-26 12:43:00,-999.0,-99.9,-100.00,NE,50,2.0,-999.0,-999,-99.99,,,-99.99,,2013-01-26 19:43:00,
2013-01-26 12:53:00,-999.0,-99.9,-100.00,NE,50,2.0,-999.0,-999,-99.99,,,-99.99,,2013-01-26 19:53:00,
2013-01-26 13:32:00,44.0,29.0,-100.00,North,0,0.0,-999.0,55,-99.99,,,-99.99,,2013-01-26 20:32:00,
2013-01-26 13:42:00,44.0,29.0,-100.00,North,0,0.0,-999.0,55,-99.99,,,-99.99,,2013-01-26 20:42:00,
2013-01-26 13:52:00,44.0,29.0,-100.00,North,0,0.0,-999.0,55,-99.99,,,-99.99,,2013-01-26 20:52:00,
2013-01-26 15:32:00,44.0,30.0,-100.00,NE,40,3.0,-999.0,57,-99.99,,,-99.99,,2013-01-26 22:32:00,
2013-01-26 15:42:00,44.0,30.0,-100.00,NE,40,3.0,-999.0,57,-99.99,,,-99.99,,2013-01-26 22:42:00,
2013-01-26 15:52:00,44.0,30.0,-100.00,NE,40,3.0,-999.0,57,-99.99,,,-99.99,,2013-01-26 22:52:00,
2013-01-26 16:32:00,41.0,30.0,-100.00,NE,50,3.0,-999.0,65,-99.99,,,-99.99,,2013-01-26 23:32:00,
2013-01-26 16:42:00,41.0,30.0,-100.00,NE,50,3.0,-999.0,65,-99.99,,,-99.99,,2013-01-26 23:42:00,
2013-01-26 16:52:00,41.0,30.0,-100.00,NE,50,3.0,-999.0,65,-99.99,,,-99.99,,2013-01-26 23:52:00,
2013-01-26 17:32:00,34.0,28.0,-100.00,NE,50,5.0,-999.0,78,-99.99,,,-99.99,,2013-01-27 00:32:00,
2013-01-26 17:42:00,34.0,28.0,-100.00,NE,50,5.0,-999.0,78,-99.99,,,-99.99,,2013-01-27 00:42:00,
2013-01-26 17:51:00,34.0,28.0,-100.00,NE,50,5.0,-999.0,78,-99.99,,,-99.99,,2013-01-27 00:51:00,
2013-01-26 18:32:00,32.0,28.0,-100.00,NNE,30,7.0,-999.0,85,-99.99,,,-99.99,,2013-01-27 01:32:00,
2013-01-26 18:42:00,32.0,28.0,-100.00,NNE,30,7.0,-999.0,85,-99.99,,,-99.99,,2013-01-27 01:42:00,
2013-01-26 18:52:00,32.0,28.0,-100.00,NNE,30,7.0,-999.0,85,-99.99,,,-99.99,,2013-01-27 01:52:00,
2013-01-26 19:32:00,31.0,29.0,-100.00,NNE,30,9.0,-999.0,92,-99.99,,,-99.99,,2013-01-27 02:32:00,
2013-01-26 19:42:00,31.0,29.0,-100.00,NNE,30,9.0,-999.0,92,-99.99,,,-99.99,,2013-01-27 02:42:00,
2013-01-26 19:52:00,31.0,29.0,-100.00,NNE,30,9.0,-999.0,92,-99.99,,,-99.99,,2013-01-27 02:52:00,
2013-01-26 20:32:00,30.0,29.0,-100.00,NE,50,6.0,-999.0,95,-99.99,,,-99.99,,2013-01-27 03:32:00,
2013-01-26 20:42:00,30.0,29.0,-100.00,NE,50,6.0,-999.0,95,-99.99,,,-99.99,,2013-01-27 03:42:00,
2013-01-26 20:51:00,30.0,29.0,-100.00,NE,50,6.0,-999.0,95,-99.99,,,-99.99,,2013-01-27 03:51:00,
2013-01-26 21:32:00,30.0,29.0,-100.00,NE,50,3.0,-999.0,95,-99.99,,,-99.99,,2013-01-27 04:32:00,
2013-01-26 21:41:00,30.0,29.0,-100.00,NE,50,3.0,-999.0,95,-99.99,,,-99.99,,2013-01-27 04:41:00,
2013-01-26 21:51:00,30.0,29.0,-100.00,NE,50,3.0,-999.0,95,-99.99,,,-99.99,,2013-01-27 04:51:00,
2013-01-26 22:32:00,30.0,29.0,-100.00,NE,40,6.0,-999.0,95,-99.99,,,-99.99,,2013-01-27 05:32:00,
2013-01-26 22:41:00,30.0,29.0,-100.00,NE,40,6.0,-999.0,95,-99.99,,,-99.99,,2013-01-27 05:41:00,
2013-01-26 22:52:00,30.0,29.0,-100.00,NE,40,6.0,-999.0,95,-99.99,,,-99.99,,2013-01-27 05:52:00,
2013-01-26 23:32:00,32.0,30.0,-100.00,WNW,300,6.0,-999.0,92,-99.99,,,-99.99,,2013-01-27 06:32:00,
2013-01-26 23:42:00,32.0,30.0,-100.00,WNW,300,6.0,-999.0,92,-99.99,,,-99.99,,2013-01-27 06:42:00,
2013-01-26 23:52:00,32.0,30.0,-100.00,WNW,300,6.0,-999.0,92,-99.99,,,-99.99,,2013-01-27 06:52:00,